Time;durP1;ratioP1;P1;durP2;ratioP2;P2;SDS_P1;SDS_P2;PMS_P1;PMS_P2;Temp;Humidity;BMP_temperature;BMP_pressure;BME280_temperature;BME280_humidity;BME280_pressure;Samples;Min_cycle;Max_cycle;Signal;HPM_P1;HPM_P2
2022/05/31 00:00:16;;;;;;;27.53;26.00;;;10.80;73.00;;;;;;5084480;28;20471;-70
2022/05/31 00:02:46;;;;;;;27.60;26.00;;;10.80;73.60;;;;;;5073842;28;20460;-70
2022/05/31 00:05:13;;;;;;;28.07;26.27;;;10.80;73.50;;;;;;5090006;28;20474;-71
2022/05/31 00:07:41;;;;;;;26.87;25.30;;;10.80;73.50;;;;;;5086816;28;20458;-70
2022/05/31 00:10:10;;;;;;;27.70;26.10;;;10.80;73.40;;;;;;5087609;28;20477;-71
2022/05/31 00:12:37;;;;;;;26.83;25.33;;;10.70;73.60;;;;;;5071817;28;20453;-70
2022/05/31 00:15:06;;;;;;;27.57;26.07;;;10.70;73.80;;;;;;5109182;28;20492;-70
2022/05/31 00:17:33;;;;;;;26.70;25.23;;;10.60;74.10;;;;;;5084897;28;20560;-71
2022/05/31 00:20:01;;;;;;;28.30;26.60;;;10.60;74.30;;;;;;5084599;28;20633;-70
2022/05/31 00:22:29;;;;;;;28.03;26.43;;;10.60;74.30;;;;;;5084292;28;20458;-69
2022/05/31 00:24:56;;;;;;;27.45;25.95;;;10.60;74.20;;;;;;5098328;28;20473;-68
2022/05/31 00:27:24;;;;;;;26.47;25.07;;;10.60;74.30;;;;;;5083762;28;20213;-68
2022/05/31 00:29:51;;;;;;;26.57;24.93;;;10.60;74.30;;;;;;5088184;28;20464;-70
2022/05/31 00:32:24;;;;;;;26.40;25.00;;;10.50;74.60;;;;;;5077307;28;20466;-73
2022/05/31 00:34:53;;;;;;;27.37;25.87;;;10.50;74.80;;;;;;5087043;28;20969;-70
2022/05/31 00:37:22;;;;;;;27.40;25.80;;;10.40;75.20;;;;;;5082729;28;20736;-69
2022/05/31 00:39:48;;;;;;;25.88;24.52;;;10.40;75.30;;;;;;5079135;28;20193;-70
2022/05/31 00:42:19;;;;;;;26.15;24.75;;;10.30;75.50;;;;;;5081637;28;20212;-70
2022/05/31 00:44:46;;;;;;;26.10;24.60;;;10.30;75.60;;;;;;5101041;28;20193;-70
2022/05/31 00:47:15;;;;;;;25.92;24.33;;;10.30;75.60;;;;;;5086805;28;20199;-70
2022/05/31 00:49:46;;;;;;;26.13;24.58;;;10.30;75.70;;;;;;5085836;28;20700;-70
2022/05/31 00:52:18;;;;;;;26.65;24.95;;;10.30;75.60;;;;;;5078059;28;20601;-70
2022/05/31 00:54:50;;;;;;;26.17;24.58;;;10.30;75.70;;;;;;5085183;28;20417;-70
2022/05/31 00:57:18;;;;;;;26.20;24.70;;;10.20;76.00;;;;;;5081718;28;20324;-70
2022/05/31 00:59:48;;;;;;;26.08;24.52;;;10.20;76.20;;;;;;5088496;28;20201;-70
2022/05/31 01:02:17;;;;;;;25.88;24.48;;;10.20;76.10;;;;;;5076881;28;20200;-70
2022/05/31 01:04:48;;;;;;;26.63;25.13;;;10.30;75.70;;;;;;5083358;28;20221;-70
2022/05/31 01:07:15;;;;;;;27.33;25.73;;;10.20;76.10;;;;;;5074380;28;20210;-70
2022/05/31 01:09:42;;;;;;;26.80;25.30;;;10.10;76.20;;;;;;5083672;28;20216;-71
2022/05/31 01:12:13;;;;;;;26.90;25.50;;;10.10;76.50;;;;;;5074635;28;20198;-70
2022/05/31 01:14:41;;;;;;;27.33;25.45;;;10.10;76.60;;;;;;5088949;28;20187;-70
2022/05/31 01:17:13;;;;;;;26.90;25.40;;;10.00;77.00;;;;;;5081451;28;20195;-70
2022/05/31 01:19:59;;;;;;;26.05;24.75;;;10.00;77.00;;;;;;5082003;28;20197;-68
2022/05/31 01:22:37;;;;;;;26.50;24.98;;;10.00;76.90;;;;;;5075846;28;20196;-68
2022/05/31 01:25:20;;;;;;;26.25;24.65;;;10.00;77.00;;;;;;5085225;28;20219;-68
2022/05/31 01:27:53;;;;;;;27.17;25.67;;;10.00;77.20;;;;;;5077775;28;20197;-69
2022/05/31 01:30:21;;;;;;;26.85;25.23;;;9.90;77.20;;;;;;5084832;28;20655;-69
2022/05/31 01:32:56;;;;;;;26.10;24.60;;;9.90;77.00;;;;;;5079935;28;20564;-69
2022/05/31 01:35:26;;;;;;;26.15;24.35;;;9.90;77.40;;;;;;5080156;28;20310;-72
2022/05/31 01:37:58;;;;;;;26.38;24.90;;;9.80;77.80;;;;;;5083649;28;20200;-70
2022/05/31 01:40:36;;;;;;;26.20;24.80;;;9.80;77.70;;;;;;5085916;28;20201;-70
2022/05/31 01:43:03;;;;;;;25.88;24.48;;;9.80;77.60;;;;;;5091720;28;20204;-70
2022/05/31 01:45:37;;;;;;;26.60;25.10;;;9.80;77.80;;;;;;5085685;28;20212;-70
2022/05/31 01:48:06;;;;;;;26.85;25.27;;;9.80;77.60;;;;;;5081950;28;20568;-70
2022/05/31 01:50:33;;;;;;;25.23;23.83;;;9.80;77.60;;;;;;5074125;28;20206;-71
2022/05/31 01:53:02;;;;;;;26.40;24.85;;;9.70;78.00;;;;;;5075519;28;20218;-70
2022/05/31 01:55:32;;;;;;;26.15;24.83;;;9.70;77.80;;;;;;5086992;28;20336;-70
2022/05/31 01:58:03;;;;;;;25.70;24.15;;;9.70;78.00;;;;;;5087969;28;20196;-71
2022/05/31 02:00:30;;;;;;;26.00;24.30;;;9.70;78.10;;;;;;5085242;28;20222;-70
2022/05/31 02:03:00;;;;;;;25.98;24.38;;;9.70;78.00;;;;;;5079823;28;20199;-71
2022/05/31 02:05:27;;;;;;;25.70;24.30;;;9.70;78.00;;;;;;5076337;28;20354;-71
2022/05/31 02:07:56;;;;;;;27.15;25.55;;;9.80;77.80;;;;;;5083388;28;20202;-70
2022/05/31 02:10:24;;;;;;;26.00;24.40;;;9.70;77.80;;;;;;5085130;28;20211;-70
2022/05/31 02:12:51;;;;;;;26.15;24.75;;;9.80;77.50;;;;;;5081536;28;20198;-70
2022/05/31 02:15:19;;;;;;;25.35;23.85;;;9.70;78.00;;;;;;5072433;28;20228;-71
2022/05/31 02:17:46;;;;;;;25.38;23.98;;;9.70;77.80;;;;;;5086362;28;20202;-70
2022/05/31 02:20:13;;;;;;;26.33;24.83;;;9.60;78.00;;;;;;5081968;28;20196;-72
2022/05/31 02:22:40;;;;;;;25.90;24.30;;;9.60;78.20;;;;;;5089964;28;20192;-70
2022/05/31 02:25:09;;;;;;;25.13;23.73;;;9.50;78.50;;;;;;5087719;28;20211;-70
2022/05/31 02:27:37;;;;;;;27.15;25.65;;;9.50;78.80;;;;;;5084174;28;20626;-71
2022/05/31 02:30:05;;;;;;;25.90;24.40;;;9.50;78.80;;;;;;5090046;28;20196;-70
2022/05/31 02:32:32;;;;;;;25.73;24.13;;;9.60;78.60;;;;;;5078855;28;20204;-71
2022/05/31 02:34:59;;;;;;;25.75;24.33;;;9.50;78.80;;;;;;5074427;28;20581;-70
2022/05/31 02:37:26;;;;;;;26.50;24.77;;;9.50;79.00;;;;;;5103398;28;20231;-68
2022/05/31 02:39:53;;;;;;;25.95;24.40;;;9.60;78.60;;;;;;5079325;28;20196;-69
2022/05/31 02:42:20;;;;;;;25.55;24.15;;;9.50;78.60;;;;;;5080728;28;20204;-68
2022/05/31 02:44:48;;;;;;;26.27;24.77;;;9.40;78.80;;;;;;5078983;28;20224;-68
2022/05/31 02:47:16;;;;;;;26.23;24.73;;;9.50;78.80;;;;;;5085210;28;20278;-68
2022/05/31 02:49:45;;;;;;;26.60;24.98;;;9.40;78.90;;;;;;5075581;28;20204;-68
2022/05/31 02:52:12;;;;;;;26.73;25.23;;;9.40;79.30;;;;;;5078467;28;20230;-68
2022/05/31 02:54:39;;;;;;;25.85;24.25;;;9.40;79.30;;;;;;5068088;28;20196;-68
2022/05/31 02:57:06;;;;;;;24.98;23.58;;;9.30;79.40;;;;;;5080678;28;20693;-68
2022/05/31 02:59:33;;;;;;;25.88;24.48;;;9.30;79.70;;;;;;5081196;28;20204;-68
2022/05/31 03:02:01;;;;;;;25.98;24.55;;;9.30;79.70;;;;;;5086218;28;20187;-71
2022/05/31 03:04:28;;;;;;;26.05;24.23;;;9.20;79.70;;;;;;5088487;28;20192;-70
2022/05/31 03:07:01;;;;;;;26.00;24.55;;;9.20;79.90;;;;;;5079204;28;20216;-73
2022/05/31 03:09:29;;;;;;;27.58;25.98;;;9.20;79.80;;;;;;5076473;28;20519;-70
2022/05/31 03:12:00;;;;;;;26.60;25.15;;;9.20;80.10;;;;;;5080346;28;20574;-71
2022/05/31 03:14:30;;;;;;;26.55;25.13;;;9.30;79.70;;;;;;5067924;28;20200;-70
2022/05/31 03:17:02;;;;;;;26.00;24.63;;;9.20;79.80;;;;;;5067926;28;20224;-71
2022/05/31 03:19:33;;;;;;;26.98;25.52;;;9.10;80.30;;;;;;5086219;28;20330;-70
2022/05/31 03:22:05;;;;;;;26.83;25.40;;;9.10;80.40;;;;;;5082935;28;20203;-70
2022/05/31 03:24:41;;;;;;;27.20;25.50;;;9.10;80.50;;;;;;5089856;28;20688;-70
2022/05/31 03:27:10;;;;;;;27.83;26.00;;;9.10;80.20;;;;;;5079310;28;20729;-70
2022/05/31 03:29:40;;;;;;;27.35;25.85;;;9.00;80.20;;;;;;5085349;28;20632;-70
2022/05/31 03:32:10;;;;;;;28.92;27.33;;;9.00;80.40;;;;;;5086856;28;20238;-70
2022/05/31 03:34:37;;;;;;;28.52;26.45;;;9.00;80.50;;;;;;5075973;28;20196;-70
2022/05/31 03:37:05;;;;;;;27.33;25.73;;;8.90;80.90;;;;;;5088904;28;20226;-70
2022/05/31 03:39:32;;;;;;;28.00;26.50;;;8.90;81.10;;;;;;5099327;28;20196;-70
2022/05/31 03:41:58;;;;;;;26.88;25.25;;;9.10;81.00;;;;;;5074647;28;20201;-70
2022/05/31 03:44:25;;;;;;;27.55;25.88;;;9.20;80.60;;;;;;5093321;28;20191;-70
2022/05/31 03:46:52;;;;;;;28.35;26.42;;;9.30;80.40;;;;;;5086331;28;20360;-70
2022/05/31 03:49:21;;;;;;;29.20;27.58;;;9.40;80.30;;;;;;5075243;28;20205;-70
2022/05/31 03:51:47;;;;;;;28.23;26.50;;;9.60;79.60;;;;;;5090835;28;20584;-69
2022/05/31 03:54:15;;;;;;;28.00;26.30;;;9.80;78.90;;;;;;5080904;28;20204;-70
2022/05/31 03:56:41;;;;;;;26.80;25.20;;;10.00;78.00;;;;;;5088176;28;20247;-70
2022/05/31 03:59:10;;;;;;;26.65;25.15;;;10.20;76.90;;;;;;5092010;28;20195;-70
2022/05/31 04:01:36;;;;;;;26.98;25.48;;;10.40;76.60;;;;;;5096788;28;20195;-70
2022/05/31 04:04:03;;;;;;;27.25;25.60;;;10.40;75.40;;;;;;5086276;28;20569;-70
2022/05/31 04:06:32;;;;;;;29.02;27.20;;;10.40;75.40;;;;;;5086472;28;20276;-70
2022/05/31 04:08:59;;;;;;;29.70;27.83;;;10.30;76.10;;;;;;5098082;28;20214;-70
2022/05/31 04:11:26;;;;;;;28.67;26.98;;;10.30;76.00;;;;;;5089962;28;20198;-69
2022/05/31 04:13:53;;;;;;;27.23;25.48;;;10.30;76.10;;;;;;5087855;28;20200;-71
2022/05/31 04:16:20;;;;;;;27.58;25.88;;;10.40;75.60;;;;;;5080368;28;20230;-71
2022/05/31 04:18:47;;;;;;;28.42;26.73;;;10.20;75.70;;;;;;5091399;28;20202;-70
2022/05/31 04:21:17;;;;;;;30.20;28.15;;;10.10;76.20;;;;;;5080830;28;20277;-70
2022/05/31 04:24:08;;;;;;;28.90;27.30;;;10.10;76.40;;;;;;5085672;28;20199;-70
2022/05/31 04:26:42;;;;;;;29.20;27.30;;;10.10;76.60;;;;;;5079587;28;20214;-70
2022/05/31 04:29:09;;;;;;;28.00;26.30;;;9.90;77.20;;;;;;5085822;28;20199;-70
2022/05/31 04:31:36;;;;;;;28.30;26.40;;;9.90;77.60;;;;;;5081477;28;20204;-70
2022/05/31 04:34:04;;;;;;;28.25;26.55;;;10.00;77.40;;;;;;5070488;28;20204;-69
2022/05/31 04:36:31;;;;;;;29.67;27.85;;;10.10;77.20;;;;;;5098156;28;20211;-70
2022/05/31 04:38:59;;;;;;;30.15;28.15;;;10.10;77.30;;;;;;5081320;28;20570;-70
2022/05/31 04:41:29;;;;;;;27.10;25.50;;;10.20;77.50;;;;;;5084218;28;20204;-71
2022/05/31 04:43:58;;;;;;;26.58;24.88;;;10.30;77.40;;;;;;5087852;28;20200;-70
2022/05/31 04:46:27;;;;;;;27.08;25.58;;;10.40;77.20;;;;;;5091538;28;20681;-71
2022/05/31 04:48:55;;;;;;;27.27;25.77;;;10.60;75.70;;;;;;5087261;28;20196;-70
2022/05/31 04:51:22;;;;;;;27.60;25.90;;;10.60;75.10;;;;;;5078459;28;20212;-71
2022/05/31 04:53:49;;;;;;;27.40;25.70;;;10.60;75.20;;;;;;5084166;28;20214;-70
2022/05/31 04:56:20;;;;;;;26.08;24.58;;;10.60;75.60;;;;;;5087194;28;20227;-70
2022/05/31 04:58:47;;;;;;;27.50;25.67;;;10.50;75.90;;;;;;5088633;28;20202;-70
2022/05/31 05:01:14;;;;;;;27.52;25.92;;;10.50;76.10;;;;;;5083854;28;20204;-70
2022/05/31 05:03:41;;;;;;;28.20;26.50;;;10.60;76.20;;;;;;5093760;28;20215;-71
2022/05/31 05:06:10;;;;;;;29.08;27.33;;;10.60;76.20;;;;;;5085111;28;20219;-69
2022/05/31 05:08:38;;;;;;;27.23;25.60;;;10.80;76.00;;;;;;5075731;28;20196;-68
2022/05/31 05:11:09;;;;;;;27.35;25.75;;;11.00;75.60;;;;;;5084799;28;20203;-68
2022/05/31 05:13:37;;;;;;;29.40;27.83;;;11.10;75.20;;;;;;5078279;28;20215;-68
2022/05/31 05:16:05;;;;;;;30.00;28.10;;;11.20;75.00;;;;;;5086280;28;20482;-69
2022/05/31 05:18:32;;;;;;;29.70;27.90;;;11.40;74.50;;;;;;5085187;28;20465;-68
2022/05/31 05:21:00;;;;;;;27.60;26.10;;;11.50;74.20;;;;;;5095341;28;21021;-68
2022/05/31 05:23:28;;;;;;;29.03;27.17;;;11.70;74.20;;;;;;5083619;28;20990;-69
2022/05/31 05:25:57;;;;;;;29.47;27.70;;;11.90;73.60;;;;;;5080638;28;20490;-69
2022/05/31 05:31:19;;;;;;;27.90;26.20;;;12.20;72.40;;;;;;5084350;28;20492;-68
2022/05/31 05:33:46;;;;;;;29.93;28.23;;;12.40;71.70;;;;;;5083470;28;20458;-68
2022/05/31 05:36:13;;;;;;;27.90;26.30;;;12.60;71.00;;;;;;5089117;28;21034;-71
2022/05/31 05:38:42;;;;;;;29.90;27.90;;;12.80;70.70;;;;;;5079625;28;20461;-71
2022/05/31 05:41:09;;;;;;;26.90;25.17;;;12.90;70.00;;;;;;5083286;28;20453;-69
2022/05/31 05:43:36;;;;;;;30.67;29.00;;;13.10;69.00;;;;;;5072550;28;20941;-69
2022/05/31 05:46:06;;;;;;;28.83;27.13;;;13.20;68.90;;;;;;5086034;28;20512;-69
2022/05/31 05:48:36;;;;;;;30.37;28.47;;;13.40;68.60;;;;;;5081395;28;20573;-69
2022/05/31 05:51:12;;;;;;;28.10;26.23;;;13.50;68.90;;;;;;5085282;28;20475;-70
2022/05/31 05:53:39;;;;;;;28.77;27.00;;;13.70;68.00;;;;;;5082402;28;20461;-69
2022/05/31 05:56:06;;;;;;;28.20;26.47;;;13.80;66.80;;;;;;5080883;28;20574;-70
2022/05/31 05:58:32;;;;;;;27.27;25.73;;;13.90;66.10;;;;;;5074796;28;20458;-69
2022/05/31 06:01:00;;;;;;;29.40;27.17;;;14.10;66.40;;;;;;5078070;28;21813;-72
2022/05/31 06:03:37;;;;;;;29.70;27.90;;;14.20;66.40;;;;;;5075414;28;20832;-70
2022/05/31 06:06:05;;;;;;;28.83;26.87;;;14.40;65.50;;;;;;5080586;28;20571;-69
2022/05/31 06:08:35;;;;;;;28.43;26.73;;;14.80;64.10;;;;;;5080437;28;20462;-71
2022/05/31 06:11:07;;;;;;;28.33;26.73;;;15.10;63.20;;;;;;5082289;28;20488;-71
2022/05/31 06:13:36;;;;;;;28.67;27.07;;;15.50;61.20;;;;;;5086079;28;20511;-68
2022/05/31 06:16:06;;;;;;;30.03;28.33;;;15.60;61.20;;;;;;5084021;28;20490;-71
2022/05/31 06:18:38;;;;;;;27.30;25.70;;;15.70;60.50;;;;;;5083612;28;21195;-72
2022/05/31 06:21:08;;;;;;;27.17;25.57;;;15.90;60.40;;;;;;5079870;28;20456;-76
2022/05/31 06:23:37;;;;;;;29.27;27.57;;;16.10;60.50;;;;;;5077960;28;20463;-75
2022/05/31 06:26:05;;;;;;;28.87;27.17;;;16.30;60.20;;;;;;5082810;28;20496;-75
2022/05/31 06:28:32;;;;;;;28.67;26.60;;;16.40;59.90;;;;;;5086838;28;20863;-74
2022/05/31 06:30:59;;;;;;;29.40;27.07;;;16.70;60.00;;;;;;5082284;28;20587;-75
2022/05/31 06:33:26;;;;;;;29.90;28.00;;;16.90;59.10;;;;;;5081852;28;20464;-74
2022/05/31 06:35:53;;;;;;;30.50;28.70;;;16.90;58.80;;;;;;5079076;28;20486;-70
2022/05/31 06:38:22;;;;;;;27.90;26.30;;;16.90;58.70;;;;;;5075446;28;20478;-72
2022/05/31 06:40:52;;;;;;;31.47;29.67;;;16.90;58.60;;;;;;5083825;28;20971;-70
2022/05/31 06:43:20;;;;;;;29.13;27.43;;;16.90;59.00;;;;;;5080483;28;20934;-72
2022/05/31 06:45:46;;;;;;;29.80;28.00;;;17.10;58.80;;;;;;5080846;28;20573;-73
2022/05/31 06:48:14;;;;;;;28.23;26.53;;;17.50;57.80;;;;;;5081293;28;20460;-72
2022/05/31 06:50:43;;;;;;;29.57;27.40;;;17.70;56.90;;;;;;5081447;28;20519;-72
2022/05/31 06:58:55;;;;;;;27.97;26.27;;;18.00;56.40;;;;;;5086486;28;20445;-71
2022/05/31 07:01:30;;;;;;;28.00;26.40;;;18.20;56.00;;;;;;5081513;28;20453;-71
2022/05/31 07:03:57;;;;;;;29.53;27.60;;;18.40;55.60;;;;;;5084858;28;20461;-71
2022/05/31 07:06:24;;;;;;;28.60;27.00;;;18.60;55.40;;;;;;5083405;28;20477;-70
2022/05/31 07:08:50;;;;;;;29.60;27.47;;;18.70;55.40;;;;;;5083877;28;20827;-71
2022/05/31 07:11:19;;;;;;;27.70;26.20;;;18.80;54.80;;;;;;5077325;28;20487;-72
2022/05/31 07:13:46;;;;;;;29.33;27.60;;;18.80;54.00;;;;;;5072586;28;20547;-72
2022/05/31 07:16:12;;;;;;;30.13;28.23;;;18.70;54.00;;;;;;5077715;28;20481;-71
2022/05/31 07:18:42;;;;;;;29.93;28.13;;;18.50;54.40;;;;;;5084140;28;21018;-71
2022/05/31 07:21:10;;;;;;;29.90;28.20;;;18.50;54.80;;;;;;5080416;28;20460;-71
2022/05/31 07:23:38;;;;;;;28.93;27.13;;;18.60;54.80;;;;;;5081865;28;20884;-71
2022/05/31 07:26:05;;;;;;;28.67;26.80;;;18.70;54.00;;;;;;5085599;28;21056;-71
2022/05/31 07:28:33;;;;;;;29.07;27.27;;;18.70;54.30;;;;;;5085422;28;20951;-71
2022/05/31 07:31:01;;;;;;;28.93;27.03;;;18.80;53.80;;;;;;5086093;28;20457;-76
2022/05/31 07:33:28;;;;;;;28.47;26.77;;;18.60;53.90;;;;;;5079745;28;20809;-70
2022/05/31 07:35:55;;;;;;;28.23;26.50;;;18.50;54.30;;;;;;5084722;28;20503;-71
2022/05/31 07:38:23;;;;;;;26.77;25.17;;;18.50;54.40;;;;;;5089254;28;20534;-71
2022/05/31 07:40:50;;;;;;;27.60;26.00;;;18.70;54.20;;;;;;5085433;28;20823;-72
2022/05/31 07:43:17;;;;;;;27.27;25.80;;;19.10;53.80;;;;;;5088617;28;20978;-71
2022/05/31 07:45:46;;;;;;;28.43;26.73;;;19.40;53.30;;;;;;5086749;28;20473;-71
2022/05/31 07:48:13;;;;;;;29.07;27.37;;;19.80;52.90;;;;;;5084079;28;20978;-72
2022/05/31 07:50:40;;;;;;;32.80;30.17;;;20.10;52.80;;;;;;5085122;28;20441;-71
2022/05/31 07:53:07;;;;;;;31.00;29.00;;;20.40;52.20;;;;;;5082607;28;20449;-71
2022/05/31 07:55:34;;;;;;;27.40;25.90;;;20.60;52.10;;;;;;5086737;28;20482;-72
2022/05/31 08:00:47;;;;;;;27.87;26.17;;;20.90;51.20;;;;;;5087698;28;20894;-72
2022/05/31 08:03:14;;;;;;;31.20;29.30;;;20.90;51.10;;;;;;5092306;28;20780;-71
2022/05/31 08:05:41;;;;;;;29.77;28.03;;;20.90;50.50;;;;;;5086522;28;21012;-71
2022/05/31 08:08:09;;;;;;;28.83;27.13;;;20.80;50.80;;;;;;5089132;28;20479;-71
2022/05/31 08:10:36;;;;;;;28.27;26.60;;;20.80;50.80;;;;;;5088080;28;20469;-72
2022/05/31 08:13:03;;;;;;;29.77;28.07;;;20.90;50.80;;;;;;5088071;28;20450;-71
2022/05/31 08:15:31;;;;;;;28.57;26.97;;;20.90;50.90;;;;;;5087096;28;20536;-72
2022/05/31 08:18:00;;;;;;;29.43;27.70;;;20.90;51.70;;;;;;5086073;28;20470;-74
2022/05/31 08:20:26;;;;;;;29.07;27.47;;;20.90;51.10;;;;;;5087824;28;20521;-73
2022/05/31 08:22:53;;;;;;;29.73;27.63;;;20.90;50.90;;;;;;5089819;28;20446;-73
2022/05/31 08:25:20;;;;;;;27.60;26.00;;;20.80;51.00;;;;;;5088251;28;20560;-74
2022/05/31 08:27:47;;;;;;;28.40;26.77;;;20.70;51.00;;;;;;5085721;28;20477;-72
2022/05/31 08:30:14;;;;;;;28.70;27.10;;;20.70;51.00;;;;;;5086233;28;20826;-72
2022/05/31 08:32:41;;;;;;;30.07;28.20;;;20.70;51.20;;;;;;5090231;28;20825;-73
2022/05/31 08:35:10;;;;;;;27.90;26.30;;;20.70;50.60;;;;;;5087223;28;20474;-73
2022/05/31 08:37:37;;;;;;;28.17;26.47;;;20.60;49.90;;;;;;5085880;28;20469;-73
2022/05/31 08:40:04;;;;;;;28.00;26.30;;;20.60;50.40;;;;;;5088122;28;20469;-72
2022/05/31 08:42:45;;;;;;;29.07;27.37;;;20.60;50.70;;;;;;5086484;28;20568;-73
2022/05/31 08:45:16;;;;;;;29.23;27.53;;;20.80;50.50;;;;;;5089291;28;20473;-74
2022/05/31 08:47:46;;;;;;;30.50;28.70;;;21.00;50.10;;;;;;5087910;28;20445;-72
2022/05/31 08:53:26;;;;;;;28.87;27.17;;;21.40;49.50;;;;;;5033234;28;21040;-73
2022/05/31 08:58:46;;;;;;;28.53;26.87;;;21.70;48.80;;;;;;5083849;28;20832;-74
2022/05/31 09:01:36;;;;;;;29.80;28.20;;;22.00;49.20;;;;;;5079909;28;20458;-81
2022/05/31 09:04:14;;;;;;;30.43;28.97;;;22.30;48.60;;;;;;5082848;28;20576;-76
2022/05/31 09:06:48;;;;;;;29.47;27.77;;;22.80;48.00;;;;;;5084013;28;20496;-80
2022/05/31 09:09:18;;;;;;;28.27;26.67;;;23.20;47.50;;;;;;5084004;28;20831;-72
2022/05/31 09:11:58;;;;;;;29.40;27.47;;;23.50;47.10;;;;;;5079256;28;20534;-73
2022/05/31 09:14:34;;;;;;;28.10;26.50;;;23.80;46.60;;;;;;5083011;28;20487;-75
2022/05/31 09:17:08;;;;;;;28.23;26.53;;;23.90;45.60;;;;;;5086075;28;20454;-77
2022/05/31 09:19:43;;;;;;;28.63;26.93;;;23.60;46.00;;;;;;5082224;28;20511;-75
2022/05/31 09:22:12;;;;;;;27.73;26.23;;;23.40;46.40;;;;;;5085266;28;20460;-78
2022/05/31 09:24:42;;;;;;;27.47;25.90;;;23.40;46.60;;;;;;5086011;28;20519;-76
2022/05/31 09:27:12;;;;;;;28.53;26.73;;;23.30;46.70;;;;;;5082355;28;20470;-76
2022/05/31 09:30:01;;;;;;;30.00;28.23;;;23.30;46.80;;;;;;5087964;28;20467;-74
2022/05/31 09:32:47;;;;;;;27.83;26.23;;;23.30;47.50;;;;;;5082020;28;20462;-75
2022/05/31 09:35:40;;;;;;;29.23;27.43;;;23.10;46.60;;;;;;5092591;28;20566;-75
2022/05/31 09:38:39;;;;;;;28.00;26.37;;;23.00;45.70;;;;;;5081360;28;20472;-76
2022/05/31 09:41:15;;;;;;;28.63;26.80;;;23.10;45.50;;;;;;5079185;28;20991;-75
2022/05/31 09:43:47;;;;;;;28.90;27.30;;;23.20;45.70;;;;;;5085205;28;20504;-76
2022/05/31 09:46:23;;;;;;;29.40;27.70;;;23.30;45.30;;;;;;5087147;28;20507;-78
2022/05/31 09:48:53;;;;;;;28.17;26.37;;;23.50;45.10;;;;;;5076633;28;20985;-75
2022/05/31 09:51:29;;;;;;;28.30;26.70;;;23.60;44.80;;;;;;5081908;28;21063;-77
2022/05/31 09:59:29;;;;;;;29.07;27.27;;;24.20;43.70;;;;;;5084843;28;20480;-75
2022/05/31 10:02:03;;;;;;;28.07;26.47;;;24.40;42.80;;;;;;5084162;28;20533;-75
2022/05/31 10:04:32;;;;;;;29.03;27.40;;;24.40;42.80;;;;;;5083867;28;20476;-78
2022/05/31 10:07:01;;;;;;;28.00;26.30;;;24.70;41.90;;;;;;5084265;28;20460;-75
2022/05/31 10:09:34;;;;;;;28.80;27.10;;;24.60;41.90;;;;;;5084171;28;20485;-73
2022/05/31 10:12:25;;;;;;;27.60;26.10;;;24.50;41.80;;;;;;5082074;28;20972;-76
2022/05/31 10:14:55;;;;;;;27.50;25.90;;;24.50;41.40;;;;;;5086973;28;20466;-75
2022/05/31 10:17:32;;;;;;;28.30;26.50;;;24.40;42.10;;;;;;5081624;28;20459;-72
2022/05/31 10:20:17;;;;;;;28.03;26.43;;;24.60;42.40;;;;;;5085905;28;20458;-71
2022/05/31 10:22:57;;;;;;;29.17;27.37;;;24.80;42.20;;;;;;5080380;28;20494;-72
2022/05/31 10:25:27;;;;;;;29.60;27.70;;;24.80;41.90;;;;;;5081634;28;20488;-71
2022/05/31 10:28:01;;;;;;;28.60;26.63;;;24.30;42.50;;;;;;5078289;28;20464;-72
2022/05/31 10:30:29;;;;;;;28.13;26.20;;;24.00;43.00;;;;;;5078093;28;20460;-72
2022/05/31 10:32:58;;;;;;;28.53;26.93;;;23.70;43.70;;;;;;5084761;28;20468;-75
2022/05/31 10:35:28;;;;;;;29.50;27.60;;;23.70;44.00;;;;;;5083894;28;20577;-78
2022/05/31 10:37:59;;;;;;;28.50;26.50;;;23.90;44.90;;;;;;5087318;28;20474;-78
2022/05/31 10:40:34;;;;;;;28.43;26.73;;;23.70;45.70;;;;;;5085111;28;20467;-78
2022/05/31 10:43:13;;;;;;;30.07;28.03;;;23.20;48.00;;;;;;5088872;28;20447;-75
2022/05/31 10:45:40;;;;;;;30.73;28.93;;;23.10;48.50;;;;;;5078188;28;20480;-76
2022/05/31 10:48:07;;;;;;;28.83;27.23;;;22.50;48.80;;;;;;5084178;28;20460;-77
2022/05/31 10:50:53;;;;;;;31.40;29.50;;;22.20;50.10;;;;;;5082354;28;20455;-78
2022/05/31 10:53:36;;;;;;;31.40;29.33;;;21.90;50.20;;;;;;5081432;28;20461;-74
2022/05/31 10:56:11;;;;;;;29.67;27.67;;;22.00;49.90;;;;;;5069068;28;20486;-73
2022/05/31 10:58:58;;;;;;;28.83;27.00;;;21.90;49.80;;;;;;5076099;28;20851;-74
2022/05/31 11:01:40;;;;;;;28.80;26.90;;;21.80;50.40;;;;;;5075948;28;20453;-72
2022/05/31 11:04:21;;;;;;;32.20;30.07;;;22.20;49.60;;;;;;5081497;28;20450;-73
2022/05/31 11:07:03;;;;;;;31.13;29.13;;;22.40;48.70;;;;;;5083372;28;20493;-73
2022/05/31 11:12:45;;;;;;;30.37;28.20;;;22.20;49.20;;;;;;5084863;28;20461;-75
2022/05/31 11:15:26;;;;;;;31.20;29.13;;;22.40;48.50;;;;;;5080415;28;20485;-72
2022/05/31 11:18:16;;;;;;;31.00;29.00;;;22.30;48.50;;;;;;5086016;28;20552;-72
2022/05/31 11:20:52;;;;;;;29.30;27.60;;;22.60;48.60;;;;;;5081888;28;20464;-73
2022/05/31 11:23:35;;;;;;;31.57;29.50;;;22.80;47.50;;;;;;5081208;28;20453;-72
2022/05/31 11:26:14;;;;;;;30.13;27.83;;;22.60;47.10;;;;;;5080869;28;20510;-72
2022/05/31 11:28:54;;;;;;;30.20;28.10;;;22.50;46.90;;;;;;5083175;28;20449;-74
2022/05/31 11:31:32;;;;;;;27.77;26.00;;;22.80;46.40;;;;;;5075037;28;20564;-73
2022/05/31 11:34:10;;;;;;;28.73;27.13;;;22.90;45.60;;;;;;5079765;28;20858;-73
2022/05/31 11:36:49;;;;;;;27.27;25.47;;;23.10;45.10;;;;;;5082047;28;20477;-73
2022/05/31 11:39:36;;;;;;;28.77;26.97;;;23.30;44.60;;;;;;5083975;28;21001;-75
2022/05/31 11:42:18;;;;;;;29.33;27.43;;;23.10;45.10;;;;;;5084643;28;20454;-73
2022/05/31 11:45:03;;;;;;;27.93;26.23;;;22.70;45.20;;;;;;5087746;28;20541;-73
2022/05/31 11:47:50;;;;;;;29.47;27.37;;;22.70;45.10;;;;;;5089114;28;20830;-73
2022/05/31 11:50:27;;;;;;;28.13;26.43;;;23.10;44.90;;;;;;5082789;28;20534;-73
2022/05/31 11:53:23;;;;;;;31.00;28.80;;;23.70;43.50;;;;;;5082515;28;20451;-74
2022/05/31 11:55:54;;;;;;;29.43;27.60;;;24.10;42.50;;;;;;5085141;28;20517;-73
2022/05/31 11:58:33;;;;;;;27.90;26.20;;;23.90;42.50;;;;;;5085512;28;20476;-72
2022/05/31 12:01:11;;;;;;;27.33;25.73;;;23.60;42.90;;;;;;5083775;28;22170;-73
2022/05/31 12:03:52;;;;;;;28.07;26.57;;;23.10;43.20;;;;;;5085745;28;20552;-72
2022/05/31 12:06:28;;;;;;;27.53;25.93;;;23.00;43.30;;;;;;5084344;28;20481;-73
2022/05/31 12:09:03;;;;;;;26.30;24.80;;;22.90;43.50;;;;;;5082343;28;20473;-75
2022/05/31 12:11:36;;;;;;;28.70;26.90;;;23.10;43.20;;;;;;5086051;28;21021;-73
2022/05/31 12:14:05;;;;;;;27.20;25.60;;;23.40;42.80;;;;;;5083787;28;20459;-72
2022/05/31 12:16:32;;;;;;;29.00;27.20;;;23.20;41.80;;;;;;5086574;28;20477;-73
2022/05/31 12:19:11;;;;;;;27.30;25.70;;;23.30;41.90;;;;;;5078176;28;20480;-75
2022/05/31 12:21:44;;;;;;;29.10;27.30;;;23.40;42.10;;;;;;5083340;28;20470;-73
2022/05/31 12:24:16;;;;;;;28.87;26.93;;;23.50;42.10;;;;;;5086805;28;20454;-73
2022/05/31 12:26:51;;;;;;;29.27;27.57;;;23.70;41.40;;;;;;5087351;28;20471;-71
2022/05/31 12:29:23;;;;;;;28.20;26.60;;;23.70;41.20;;;;;;5083726;28;20470;-71
2022/05/31 12:31:50;;;;;;;28.43;26.83;;;23.70;41.40;;;;;;5086936;28;20463;-71
2022/05/31 12:34:43;;;;;;;28.73;27.03;;;23.60;41.40;;;;;;5081934;28;20557;-72
2022/05/31 12:37:13;;;;;;;27.90;26.20;;;23.70;41.00;;;;;;5083367;28;20485;-72
2022/05/31 12:39:42;;;;;;;27.17;25.57;;;23.80;41.50;;;;;;5084549;28;20468;-71
2022/05/31 12:42:40;;;;;;;28.27;26.57;;;24.20;40.50;;;;;;5091973;28;20459;-71
2022/05/31 12:45:21;;;;;;;28.17;26.50;;;24.00;40.60;;;;;;5070723;28;20471;-71
2022/05/31 12:47:58;;;;;;;31.40;29.60;;;23.90;40.70;;;;;;5081340;28;20492;-71
2022/05/31 12:50:52;;;;;;;26.33;24.93;;;24.10;40.50;;;;;;5083970;28;20457;-71
2022/05/31 12:53:40;;;;;;;29.07;27.37;;;24.20;40.40;;;;;;5077311;28;20458;-72
2022/05/31 12:56:11;;;;;;;27.97;26.47;;;24.30;39.80;;;;;;5081169;28;20479;-73
2022/05/31 12:58:49;;;;;;;26.70;25.10;;;24.40;39.80;;;;;;5085028;28;20483;-77
2022/05/31 13:01:38;;;;;;;27.30;25.80;;;24.20;40.00;;;;;;5082407;28;20499;-75
2022/05/31 13:04:21;;;;;;;28.40;26.70;;;23.60;40.70;;;;;;5089310;28;20449;-74
2022/05/31 13:07:19;;;;;;;27.00;25.50;;;23.50;41.30;;;;;;5083121;28;20482;-74
2022/05/31 13:09:48;;;;;;;27.23;25.63;;;23.50;40.80;;;;;;5029139;28;21009;-72
2022/05/31 13:20:57;;;;;;;27.20;25.60;;;23.60;39.60;;;;;;5084651;28;20476;-74
2022/05/31 13:23:28;;;;;;;26.60;25.07;;;23.80;39.70;;;;;;5083378;28;20456;-73